sensor_id;sensor_type;location;lat;lon;timestamp;P1;durP1;ratioP1;P2;durP2;ratioP2
79403;SDS011;68858;48.642;9.142;2023-04-06T00:02:02;17.83;;;15.90;;
79403;SDS011;68858;48.642;9.142;2023-04-06T00:04:27;19.40;;;17.23;;
79403;SDS011;68858;48.642;9.142;2023-04-06T00:06:52;19.17;;;16.63;;
79403;SDS011;68858;48.642;9.142;2023-04-06T00:09:18;18.80;;;16.80;;
79403;SDS011;68858;48.642;9.142;2023-04-06T00:11:43;18.63;;;15.97;;
79403;SDS011;68858;48.642;9.142;2023-04-06T00:14:08;17.77;;;15.87;;
79403;SDS011;68858;48.642;9.142;2023-04-06T00:16:34;18.60;;;16.50;;
79403;SDS011;68858;48.642;9.142;2023-04-06T00:18:59;18.13;;;16.23;;
79403;SDS011;68858;48.642;9.142;2023-04-06T00:21:24;17.60;;;15.80;;
79403;SDS011;68858;48.642;9.142;2023-04-06T00:23:50;19.80;;;16.93;;
79403;SDS011;68858;48.642;9.142;2023-04-06T00:26:16;18.00;;;16.13;;
79403;SDS011;68858;48.642;9.142;2023-04-06T00:28:41;18.30;;;16.10;;
79403;SDS011;68858;48.642;9.142;2023-04-06T00:31:07;17.70;;;15.80;;
79403;SDS011;68858;48.642;9.142;2023-04-06T00:33:32;17.50;;;15.60;;
79403;SDS011;68858;48.642;9.142;2023-04-06T00:35:57;17.37;;;15.57;;
79403;SDS011;68858;48.642;9.142;2023-04-06T00:38:23;17.57;;;15.60;;
79403;SDS011;68858;48.642;9.142;2023-04-06T00:40:48;17.30;;;15.40;;
79403;SDS011;68858;48.642;9.142;2023-04-06T00:43:14;16.33;;;14.53;;
79403;SDS011;68858;48.642;9.142;2023-04-06T00:45:39;15.17;;;13.50;;
79403;SDS011;68858;48.642;9.142;2023-04-06T00:48:05;15.57;;;13.97;;
79403;SDS011;68858;48.642;9.142;2023-04-06T00:50:34;15.47;;;13.60;;
79403;SDS011;68858;48.642;9.142;2023-04-06T00:53:00;16.30;;;14.60;;
79403;SDS011;68858;48.642;9.142;2023-04-06T00:55:28;15.40;;;13.77;;
79403;SDS011;68858;48.642;9.142;2023-04-06T00:57:54;14.73;;;13.23;;
79403;SDS011;68858;48.642;9.142;2023-04-06T01:00:22;15.53;;;13.80;;
79403;SDS011;68858;48.642;9.142;2023-04-06T01:02:50;15.23;;;13.73;;
79403;SDS011;68858;48.642;9.142;2023-04-06T01:05:16;16.30;;;13.97;;
79403;SDS011;68858;48.642;9.142;2023-04-06T01:07:41;15.80;;;14.10;;
79403;SDS011;68858;48.642;9.142;2023-04-06T01:10:07;15.40;;;13.80;;
79403;SDS011;68858;48.642;9.142;2023-04-06T01:12:32;14.67;;;12.90;;
79403;SDS011;68858;48.642;9.142;2023-04-06T01:14:58;15.30;;;12.83;;
79403;SDS011;68858;48.642;9.142;2023-04-06T01:17:23;14.87;;;13.27;;
79403;SDS011;68858;48.642;9.142;2023-04-06T01:19:49;13.73;;;12.33;;
79403;SDS011;68858;48.642;9.142;2023-04-06T01:22:16;15.00;;;12.83;;
79403;SDS011;68858;48.642;9.142;2023-04-06T01:24:41;13.73;;;12.30;;
79403;SDS011;68858;48.642;9.142;2023-04-06T01:27:07;13.50;;;12.07;;
79403;SDS011;68858;48.642;9.142;2023-04-06T01:29:32;15.37;;;12.87;;
79403;SDS011;68858;48.642;9.142;2023-04-06T01:31:57;13.57;;;12.13;;
79403;SDS011;68858;48.642;9.142;2023-04-06T01:34:23;15.03;;;13.50;;
79403;SDS011;68858;48.642;9.142;2023-04-06T01:36:48;14.83;;;13.33;;
79403;SDS011;68858;48.642;9.142;2023-04-06T01:39:13;13.77;;;12.37;;
79403;SDS011;68858;48.642;9.142;2023-04-06T01:41:39;12.97;;;11.57;;
79403;SDS011;68858;48.642;9.142;2023-04-06T01:44:04;13.33;;;11.93;;
79403;SDS011;68858;48.642;9.142;2023-04-06T01:46:29;13.43;;;12.00;;
79403;SDS011;68858;48.642;9.142;2023-04-06T01:48:55;13.40;;;12.00;;
79403;SDS011;68858;48.642;9.142;2023-04-06T01:51:20;13.33;;;12.03;;
79403;SDS011;68858;48.642;9.142;2023-04-06T01:53:45;12.40;;;11.10;;
79403;SDS011;68858;48.642;9.142;2023-04-06T01:56:11;12.40;;;11.10;;
79403;SDS011;68858;48.642;9.142;2023-04-06T01:58:36;12.87;;;11.57;;
79403;SDS011;68858;48.642;9.142;2023-04-06T02:01:01;12.60;;;11.27;;
79403;SDS011;68858;48.642;9.142;2023-04-06T02:03:27;12.73;;;11.20;;
79403;SDS011;68858;48.642;9.142;2023-04-06T02:05:52;12.93;;;11.53;;
79403;SDS011;68858;48.642;9.142;2023-04-06T02:08:18;11.97;;;10.77;;
79403;SDS011;68858;48.642;9.142;2023-04-06T02:10:43;13.57;;;12.10;;
79403;SDS011;68858;48.642;9.142;2023-04-06T02:13:08;12.70;;;10.90;;
79403;SDS011;68858;48.642;9.142;2023-04-06T02:15:33;12.27;;;10.97;;
79403;SDS011;68858;48.642;9.142;2023-04-06T02:17:59;11.97;;;10.77;;
79403;SDS011;68858;48.642;9.142;2023-04-06T02:20:25;12.33;;;11.03;;
79403;SDS011;68858;48.642;9.142;2023-04-06T02:22:50;11.37;;;10.17;;
79403;SDS011;68858;48.642;9.142;2023-04-06T02:25:16;11.27;;;9.87;;
79403;SDS011;68858;48.642;9.142;2023-04-06T02:27:41;11.73;;;10.50;;
79403;SDS011;68858;48.642;9.142;2023-04-06T02:30:07;11.10;;;9.90;;
79403;SDS011;68858;48.642;9.142;2023-04-06T02:32:32;11.63;;;10.43;;
79403;SDS011;68858;48.642;9.142;2023-04-06T02:34:58;12.00;;;10.67;;
79403;SDS011;68858;48.642;9.142;2023-04-06T02:37:23;11.47;;;10.27;;
79403;SDS011;68858;48.642;9.142;2023-04-06T02:39:49;10.83;;;9.73;;
79403;SDS011;68858;48.642;9.142;2023-04-06T02:42:14;10.60;;;9.50;;
79403;SDS011;68858;48.642;9.142;2023-04-06T02:44:40;11.03;;;9.83;;
79403;SDS011;68858;48.642;9.142;2023-04-06T02:47:08;10.37;;;9.27;;
79403;SDS011;68858;48.642;9.142;2023-04-06T02:49:34;10.97;;;9.87;;
79403;SDS011;68858;48.642;9.142;2023-04-06T02:51:59;10.87;;;9.77;;
79403;SDS011;68858;48.642;9.142;2023-04-06T02:54:25;10.00;;;9.00;;
79403;SDS011;68858;48.642;9.142;2023-04-06T02:56:50;10.53;;;9.37;;
79403;SDS011;68858;48.642;9.142;2023-04-06T02:59:16;10.17;;;9.17;;
79403;SDS011;68858;48.642;9.142;2023-04-06T03:01:41;10.53;;;9.43;;
79403;SDS011;68858;48.642;9.142;2023-04-06T03:04:06;9.97;;;8.97;;
79403;SDS011;68858;48.642;9.142;2023-04-06T03:06:32;11.70;;;9.40;;
79403;SDS011;68858;48.642;9.142;2023-04-06T03:08:57;10.13;;;9.13;;
79403;SDS011;68858;48.642;9.142;2023-04-06T03:11:22;9.87;;;8.87;;
79403;SDS011;68858;48.642;9.142;2023-04-06T03:13:48;9.17;;;8.27;;
79403;SDS011;68858;48.642;9.142;2023-04-06T03:16:13;8.93;;;8.03;;
79403;SDS011;68858;48.642;9.142;2023-04-06T03:18:38;9.57;;;8.57;;
79403;SDS011;68858;48.642;9.142;2023-04-06T03:21:04;9.93;;;8.93;;
79403;SDS011;68858;48.642;9.142;2023-04-06T03:23:30;9.90;;;8.90;;
79403;SDS011;68858;48.642;9.142;2023-04-06T03:25:55;9.27;;;8.27;;
79403;SDS011;68858;48.642;9.142;2023-04-06T03:28:20;8.97;;;8.07;;
79403;SDS011;68858;48.642;9.142;2023-04-06T03:30:46;10.37;;;8.33;;
79403;SDS011;68858;48.642;9.142;2023-04-06T03:33:11;17.57;;;7.73;;
79403;SDS011;68858;48.642;9.142;2023-04-06T03:35:36;12.20;;;7.70;;
79403;SDS011;68858;48.642;9.142;2023-04-06T03:38:02;8.00;;;7.20;;
79403;SDS011;68858;48.642;9.142;2023-04-06T03:40:28;8.23;;;6.73;;
79403;SDS011;68858;48.642;9.142;2023-04-06T03:42:53;8.83;;;6.97;;
79403;SDS011;68858;48.642;9.142;2023-04-06T03:45:19;7.60;;;6.90;;
79403;SDS011;68858;48.642;9.142;2023-04-06T03:47:44;7.40;;;6.43;;
79403;SDS011;68858;48.642;9.142;2023-04-06T03:50:10;8.27;;;6.50;;
79403;SDS011;68858;48.642;9.142;2023-04-06T03:52:35;7.17;;;5.97;;
79403;SDS011;68858;48.642;9.142;2023-04-06T03:55:01;7.30;;;6.10;;
79403;SDS011;68858;48.642;9.142;2023-04-06T03:57:27;7.43;;;5.53;;
79403;SDS011;68858;48.642;9.142;2023-04-06T03:59:52;8.63;;;5.40;;
79403;SDS011;68858;48.642;9.142;2023-04-06T04:02:17;7.27;;;5.00;;
79403;SDS011;68858;48.642;9.142;2023-04-06T04:04:42;6.53;;;5.60;;
79403;SDS011;68858;48.642;9.142;2023-04-06T04:07:08;5.93;;;5.17;;
79403;SDS011;68858;48.642;9.142;2023-04-06T04:09:33;5.43;;;4.87;;
79403;SDS011;68858;48.642;9.142;2023-04-06T04:11:58;6.03;;;5.30;;
79403;SDS011;68858;48.642;9.142;2023-04-06T04:14:24;5.53;;;4.93;;
79403;SDS011;68858;48.642;9.142;2023-04-06T04:16:50;5.27;;;4.77;;
79403;SDS011;68858;48.642;9.142;2023-04-06T04:19:15;7.53;;;4.43;;
79403;SDS011;68858;48.642;9.142;2023-04-06T04:21:44;6.30;;;5.13;;
79403;SDS011;68858;48.642;9.142;2023-04-06T04:24:10;6.53;;;4.60;;
79403;SDS011;68858;48.642;9.142;2023-04-06T04:26:36;4.60;;;4.13;;
79403;SDS011;68858;48.642;9.142;2023-04-06T04:29:02;5.80;;;4.50;;
79403;SDS011;68858;48.642;9.142;2023-04-06T04:31:27;8.43;;;4.90;;
79403;SDS011;68858;48.642;9.142;2023-04-06T04:33:53;7.43;;;4.67;;
79403;SDS011;68858;48.642;9.142;2023-04-06T04:36:18;7.30;;;4.37;;
79403;SDS011;68858;48.642;9.142;2023-04-06T04:38:43;6.50;;;3.90;;
79403;SDS011;68858;48.642;9.142;2023-04-06T04:41:09;6.63;;;3.93;;
79403;SDS011;68858;48.642;9.142;2023-04-06T04:43:34;5.27;;;4.07;;
79403;SDS011;68858;48.642;9.142;2023-04-06T04:45:59;4.90;;;4.07;;
79403;SDS011;68858;48.642;9.142;2023-04-06T04:48:25;5.13;;;4.30;;
79403;SDS011;68858;48.642;9.142;2023-04-06T04:50:51;5.70;;;4.13;;
79403;SDS011;68858;48.642;9.142;2023-04-06T04:53:16;5.33;;;4.37;;
79403;SDS011;68858;48.642;9.142;2023-04-06T04:55:41;4.47;;;4.07;;
79403;SDS011;68858;48.642;9.142;2023-04-06T04:58:06;4.40;;;4.00;;
79403;SDS011;68858;48.642;9.142;2023-04-06T05:00:33;5.23;;;4.20;;
79403;SDS011;68858;48.642;9.142;2023-04-06T05:02:59;4.73;;;3.90;;
79403;SDS011;68858;48.642;9.142;2023-04-06T05:05:24;3.90;;;3.50;;
79403;SDS011;68858;48.642;9.142;2023-04-06T05:07:50;4.90;;;3.87;;
79403;SDS011;68858;48.642;9.142;2023-04-06T05:10:15;4.30;;;3.90;;
79403;SDS011;68858;48.642;9.142;2023-04-06T05:12:40;4.43;;;3.70;;
79403;SDS011;68858;48.642;9.142;2023-04-06T05:15:06;6.10;;;4.07;;
79403;SDS011;68858;48.642;9.142;2023-04-06T05:17:32;4.23;;;3.43;;
79403;SDS011;68858;48.642;9.142;2023-04-06T05:19:58;5.77;;;4.07;;
79403;SDS011;68858;48.642;9.142;2023-04-06T05:22:23;5.10;;;4.17;;
79403;SDS011;68858;48.642;9.142;2023-04-06T05:24:49;5.23;;;4.20;;
79403;SDS011;68858;48.642;9.142;2023-04-06T05:27:14;4.97;;;4.00;;
79403;SDS011;68858;48.642;9.142;2023-04-06T05:29:40;4.40;;;4.00;;
79403;SDS011;68858;48.642;9.142;2023-04-06T05:32:06;5.20;;;4.00;;
79403;SDS011;68858;48.642;9.142;2023-04-06T05:34:31;4.33;;;3.93;;
79403;SDS011;68858;48.642;9.142;2023-04-06T05:36:59;3.73;;;3.10;;
79403;SDS011;68858;48.642;9.142;2023-04-06T05:39:24;4.67;;;3.70;;
79403;SDS011;68858;48.642;9.142;2023-04-06T05:41:49;6.43;;;4.10;;
79403;SDS011;68858;48.642;9.142;2023-04-06T05:44:15;4.10;;;3.70;;
79403;SDS011;68858;48.642;9.142;2023-04-06T05:46:40;4.17;;;3.73;;
79403;SDS011;68858;48.642;9.142;2023-04-06T05:49:06;6.47;;;3.80;;
79403;SDS011;68858;48.642;9.142;2023-04-06T05:51:31;4.70;;;3.50;;
79403;SDS011;68858;48.642;9.142;2023-04-06T05:53:56;3.70;;;3.30;;
79403;SDS011;68858;48.642;9.142;2023-04-06T05:56:23;4.67;;;4.17;;
79403;SDS011;68858;48.642;9.142;2023-04-06T05:58:48;4.60;;;3.87;;
79403;SDS011;68858;48.642;9.142;2023-04-06T06:01:14;6.23;;;3.70;;
79403;SDS011;68858;48.642;9.142;2023-04-06T06:03:40;4.37;;;3.37;;
79403;SDS011;68858;48.642;9.142;2023-04-06T06:06:05;3.53;;;3.20;;
79403;SDS011;68858;48.642;9.142;2023-04-06T06:08:30;3.50;;;3.20;;
79403;SDS011;68858;48.642;9.142;2023-04-06T06:10:56;4.00;;;3.67;;
79403;SDS011;68858;48.642;9.142;2023-04-06T06:13:21;4.13;;;3.40;;
79403;SDS011;68858;48.642;9.142;2023-04-06T06:15:47;3.93;;;3.33;;
79403;SDS011;68858;48.642;9.142;2023-04-06T06:18:13;4.27;;;3.50;;
79403;SDS011;68858;48.642;9.142;2023-04-06T06:20:39;3.87;;;3.47;;
79403;SDS011;68858;48.642;9.142;2023-04-06T06:23:04;3.30;;;3.00;;
79403;SDS011;68858;48.642;9.142;2023-04-06T06:25:29;3.47;;;3.17;;
79403;SDS011;68858;48.642;9.142;2023-04-06T06:27:58;3.70;;;3.13;;
79403;SDS011;68858;48.642;9.142;2023-04-06T06:30:23;3.53;;;3.23;;
79403;SDS011;68858;48.642;9.142;2023-04-06T06:32:49;3.40;;;3.10;;
79403;SDS011;68858;48.642;9.142;2023-04-06T06:35:15;3.70;;;3.37;;
79403;SDS011;68858;48.642;9.142;2023-04-06T06:37:40;3.20;;;2.90;;
79403;SDS011;68858;48.642;9.142;2023-04-06T06:40:05;3.83;;;3.07;;
79403;SDS011;68858;48.642;9.142;2023-04-06T06:42:31;3.33;;;3.03;;
79403;SDS011;68858;48.642;9.142;2023-04-06T06:44:56;4.47;;;3.47;;
79403;SDS011;68858;48.642;9.142;2023-04-06T06:47:22;3.63;;;3.20;;
79403;SDS011;68858;48.642;9.142;2023-04-06T06:49:47;4.17;;;3.23;;
79403;SDS011;68858;48.642;9.142;2023-04-06T06:52:12;3.73;;;3.30;;
79403;SDS011;68858;48.642;9.142;2023-04-06T06:54:38;3.13;;;2.90;;
79403;SDS011;68858;48.642;9.142;2023-04-06T06:57:03;3.10;;;2.80;;
79403;SDS011;68858;48.642;9.142;2023-04-06T06:59:28;3.63;;;3.33;;
79403;SDS011;68858;48.642;9.142;2023-04-06T07:01:54;3.80;;;3.50;;
79403;SDS011;68858;48.642;9.142;2023-04-06T07:04:19;4.00;;;3.23;;
79403;SDS011;68858;48.642;9.142;2023-04-06T07:06:45;3.27;;;2.97;;
79403;SDS011;68858;48.642;9.142;2023-04-06T07:09:10;4.30;;;3.10;;
79403;SDS011;68858;48.642;9.142;2023-04-06T07:11:35;3.70;;;3.40;;
79403;SDS011;68858;48.642;9.142;2023-04-06T07:14:00;3.00;;;2.80;;
79403;SDS011;68858;48.642;9.142;2023-04-06T07:16:26;3.70;;;3.10;;
79403;SDS011;68858;48.642;9.142;2023-04-06T07:18:51;3.63;;;2.90;;
79403;SDS011;68858;48.642;9.142;2023-04-06T07:21:17;3.60;;;3.10;;
79403;SDS011;68858;48.642;9.142;2023-04-06T07:23:42;3.47;;;3.00;;
79403;SDS011;68858;48.642;9.142;2023-04-06T07:26:07;3.53;;;3.23;;
79403;SDS011;68858;48.642;9.142;2023-04-06T07:28:32;3.17;;;2.87;;
79403;SDS011;68858;48.642;9.142;2023-04-06T07:30:58;3.80;;;3.40;;
79403;SDS011;68858;48.642;9.142;2023-04-06T07:33:23;3.10;;;2.70;;
79403;SDS011;68858;48.642;9.142;2023-04-06T07:35:48;3.43;;;3.10;;
79403;SDS011;68858;48.642;9.142;2023-04-06T07:38:14;3.40;;;3.10;;
79403;SDS011;68858;48.642;9.142;2023-04-06T07:40:39;3.23;;;2.93;;
79403;SDS011;68858;48.642;9.142;2023-04-06T07:43:05;3.17;;;2.87;;
79403;SDS011;68858;48.642;9.142;2023-04-06T07:45:30;3.10;;;2.80;;
79403;SDS011;68858;48.642;9.142;2023-04-06T07:47:56;4.10;;;2.90;;
79403;SDS011;68858;48.642;9.142;2023-04-06T07:50:21;3.63;;;3.10;;
79403;SDS011;68858;48.642;9.142;2023-04-06T07:52:47;3.20;;;2.90;;
79403;SDS011;68858;48.642;9.142;2023-04-06T07:55:12;3.23;;;2.93;;
79403;SDS011;68858;48.642;9.142;2023-04-06T07:57:37;3.30;;;3.00;;
79403;SDS011;68858;48.642;9.142;2023-04-06T08:00:03;3.20;;;2.77;;
79403;SDS011;68858;48.642;9.142;2023-04-06T08:02:29;3.20;;;2.90;;
79403;SDS011;68858;48.642;9.142;2023-04-06T08:04:56;3.73;;;3.20;;
79403;SDS011;68858;48.642;9.142;2023-04-06T08:07:21;3.10;;;2.80;;
79403;SDS011;68858;48.642;9.142;2023-04-06T08:09:47;3.43;;;2.73;;
79403;SDS011;68858;48.642;9.142;2023-04-06T08:12:12;3.40;;;3.10;;
79403;SDS011;68858;48.642;9.142;2023-04-06T08:14:38;3.60;;;3.07;;
79403;SDS011;68858;48.642;9.142;2023-04-06T08:17:04;6.57;;;3.23;;
79403;SDS011;68858;48.642;9.142;2023-04-06T08:19:29;3.13;;;2.67;;
79403;SDS011;68858;48.642;9.142;2023-04-06T08:21:54;3.77;;;3.03;;
79403;SDS011;68858;48.642;9.142;2023-04-06T08:24:20;4.47;;;2.67;;
79403;SDS011;68858;48.642;9.142;2023-04-06T08:26:45;4.30;;;3.03;;
79403;SDS011;68858;48.642;9.142;2023-04-06T08:29:10;3.10;;;2.80;;
79403;SDS011;68858;48.642;9.142;2023-04-06T08:31:36;4.30;;;2.90;;
79403;SDS011;68858;48.642;9.142;2023-04-06T08:34:03;5.13;;;3.10;;
79403;SDS011;68858;48.642;9.142;2023-04-06T08:36:28;3.30;;;3.00;;
79403;SDS011;68858;48.642;9.142;2023-04-06T08:38:54;4.13;;;3.30;;
79403;SDS011;68858;48.642;9.142;2023-04-06T08:41:19;3.43;;;3.10;;
79403;SDS011;68858;48.642;9.142;2023-04-06T08:43:49;3.40;;;3.03;;
79403;SDS011;68858;48.642;9.142;2023-04-06T08:46:17;3.60;;;2.87;;
79403;SDS011;68858;48.642;9.142;2023-04-06T08:48:43;3.10;;;2.80;;
79403;SDS011;68858;48.642;9.142;2023-04-06T08:51:09;3.20;;;2.90;;
79403;SDS011;68858;48.642;9.142;2023-04-06T08:53:35;3.80;;;2.67;;
79403;SDS011;68858;48.642;9.142;2023-04-06T08:56:01;2.80;;;2.43;;
79403;SDS011;68858;48.642;9.142;2023-04-06T08:58:28;3.60;;;2.90;;
79403;SDS011;68858;48.642;9.142;2023-04-06T09:00:53;5.03;;;2.87;;
79403;SDS011;68858;48.642;9.142;2023-04-06T09:03:19;3.30;;;2.97;;
79403;SDS011;68858;48.642;9.142;2023-04-06T09:05:45;3.30;;;2.70;;
79403;SDS011;68858;48.642;9.142;2023-04-06T09:08:11;4.07;;;2.70;;
79403;SDS011;68858;48.642;9.142;2023-04-06T09:10:39;2.70;;;2.50;;
79403;SDS011;68858;48.642;9.142;2023-04-06T09:13:05;2.87;;;2.60;;
79403;SDS011;68858;48.642;9.142;2023-04-06T09:15:31;3.00;;;2.70;;
79403;SDS011;68858;48.642;9.142;2023-04-06T09:17:57;2.80;;;2.40;;
79403;SDS011;68858;48.642;9.142;2023-04-06T09:20:25;2.97;;;2.67;;
79403;SDS011;68858;48.642;9.142;2023-04-06T09:22:52;4.07;;;2.60;;
79403;SDS011;68858;48.642;9.142;2023-04-06T09:25:19;2.37;;;2.17;;
79403;SDS011;68858;48.642;9.142;2023-04-06T09:27:49;2.57;;;2.37;;
79403;SDS011;68858;48.642;9.142;2023-04-06T09:30:27;3.80;;;2.67;;
79403;SDS011;68858;48.642;9.142;2023-04-06T09:32:54;2.90;;;2.60;;
79403;SDS011;68858;48.642;9.142;2023-04-06T09:35:23;2.67;;;2.47;;
79403;SDS011;68858;48.642;9.142;2023-04-06T09:37:51;2.77;;;2.30;;
79403;SDS011;68858;48.642;9.142;2023-04-06T09:40:17;3.10;;;2.80;;
79403;SDS011;68858;48.642;9.142;2023-04-06T09:42:47;2.90;;;2.50;;
79403;SDS011;68858;48.642;9.142;2023-04-06T09:45:13;3.43;;;2.50;;
79403;SDS011;68858;48.642;9.142;2023-04-06T09:47:39;3.10;;;2.60;;
79403;SDS011;68858;48.642;9.142;2023-04-06T09:50:07;2.83;;;2.60;;
79403;SDS011;68858;48.642;9.142;2023-04-06T09:52:42;2.90;;;2.37;;
79403;SDS011;68858;48.642;9.142;2023-04-06T09:55:17;2.43;;;2.23;;
79403;SDS011;68858;48.642;9.142;2023-04-06T09:57:50;2.10;;;2.00;;
79403;SDS011;68858;48.642;9.142;2023-04-06T10:00:21;2.70;;;2.50;;
79403;SDS011;68858;48.642;9.142;2023-04-06T10:03:09;2.40;;;2.20;;
79403;SDS011;68858;48.642;9.142;2023-04-06T10:05:50;2.30;;;2.10;;
79403;SDS011;68858;48.642;9.142;2023-04-06T10:08:17;2.70;;;2.40;;
79403;SDS011;68858;48.642;9.142;2023-04-06T10:10:44;3.73;;;2.37;;
79403;SDS011;68858;48.642;9.142;2023-04-06T10:13:09;2.37;;;2.17;;
79403;SDS011;68858;48.642;9.142;2023-04-06T10:15:36;2.63;;;2.43;;
79403;SDS011;68858;48.642;9.142;2023-04-06T10:18:03;2.70;;;2.40;;
79403;SDS011;68858;48.642;9.142;2023-04-06T10:26:00;2.53;;;2.33;;
79403;SDS011;68858;48.642;9.142;2023-04-06T10:28:30;2.60;;;2.40;;
79403;SDS011;68858;48.642;9.142;2023-04-06T10:31:01;3.40;;;2.20;;
79403;SDS011;68858;48.642;9.142;2023-04-06T10:33:28;2.70;;;2.37;;
79403;SDS011;68858;48.642;9.142;2023-04-06T10:35:54;2.30;;;2.10;;
79403;SDS011;68858;48.642;9.142;2023-04-06T10:38:20;2.50;;;2.30;;
79403;SDS011;68858;48.642;9.142;2023-04-06T10:40:47;3.03;;;2.30;;
79403;SDS011;68858;48.642;9.142;2023-04-06T10:43:14;2.63;;;2.27;;
79403;SDS011;68858;48.642;9.142;2023-04-06T10:45:43;2.33;;;2.13;;
79403;SDS011;68858;48.642;9.142;2023-04-06T10:48:15;2.80;;;2.10;;
79403;SDS011;68858;48.642;9.142;2023-04-06T10:50:47;2.53;;;2.23;;
79403;SDS011;68858;48.642;9.142;2023-04-06T10:53:20;3.00;;;2.30;;
79403;SDS011;68858;48.642;9.142;2023-04-06T10:55:55;2.17;;;1.97;;
79403;SDS011;68858;48.642;9.142;2023-04-06T10:58:25;3.07;;;2.10;;
79403;SDS011;68858;48.642;9.142;2023-04-06T11:00:51;1.90;;;1.80;;
79403;SDS011;68858;48.642;9.142;2023-04-06T11:03:17;2.60;;;2.17;;
79403;SDS011;68858;48.642;9.142;2023-04-06T11:05:46;2.90;;;2.00;;
79403;SDS011;68858;48.642;9.142;2023-04-06T11:08:22;2.40;;;2.20;;
79403;SDS011;68858;48.642;9.142;2023-04-06T11:10:51;2.87;;;2.20;;
79403;SDS011;68858;48.642;9.142;2023-04-06T11:13:16;2.20;;;2.00;;
79403;SDS011;68858;48.642;9.142;2023-04-06T11:15:42;2.60;;;1.80;;
79403;SDS011;68858;48.642;9.142;2023-04-06T11:18:07;4.00;;;1.90;;
79403;SDS011;68858;48.642;9.142;2023-04-06T11:20:33;3.50;;;2.10;;
79403;SDS011;68858;48.642;9.142;2023-04-06T11:22:58;2.20;;;2.00;;
79403;SDS011;68858;48.642;9.142;2023-04-06T11:25:24;2.50;;;2.00;;
79403;SDS011;68858;48.642;9.142;2023-04-06T11:27:52;2.33;;;2.13;;
79403;SDS011;68858;48.642;9.142;2023-04-06T11:30:17;9.57;;;2.20;;
79403;SDS011;68858;48.642;9.142;2023-04-06T15:45:32;5.67;;;4.80;;
79403;SDS011;68858;48.642;9.142;2023-04-06T15:47:57;5.87;;;4.47;;
79403;SDS011;68858;48.642;9.142;2023-04-06T15:50:22;6.53;;;5.83;;
79403;SDS011;68858;48.642;9.142;2023-04-06T15:52:48;6.93;;;5.60;;
79403;SDS011;68858;48.642;9.142;2023-04-06T15:55:13;5.47;;;4.97;;
79403;SDS011;68858;48.642;9.142;2023-04-06T15:57:39;5.90;;;5.00;;
79403;SDS011;68858;48.642;9.142;2023-04-06T16:00:05;5.03;;;4.50;;
79403;SDS011;68858;48.642;9.142;2023-04-06T16:02:31;6.67;;;5.10;;
79403;SDS011;68858;48.642;9.142;2023-04-06T16:04:57;5.30;;;4.80;;
79403;SDS011;68858;48.642;9.142;2023-04-06T16:07:23;5.47;;;4.87;;
79403;SDS011;68858;48.642;9.142;2023-04-06T16:09:51;5.90;;;4.93;;
79403;SDS011;68858;48.642;9.142;2023-04-06T16:12:17;6.00;;;4.90;;
79403;SDS011;68858;48.642;9.142;2023-04-06T16:14:43;8.90;;;6.97;;
79403;SDS011;68858;48.642;9.142;2023-04-06T16:17:08;13.83;;;10.43;;
79403;SDS011;68858;48.642;9.142;2023-04-06T16:19:33;9.07;;;6.93;;
79403;SDS011;68858;48.642;9.142;2023-04-06T16:21:59;11.33;;;6.30;;
79403;SDS011;68858;48.642;9.142;2023-04-06T16:24:25;7.07;;;5.37;;
79403;SDS011;68858;48.642;9.142;2023-04-06T16:26:50;6.00;;;5.37;;
79403;SDS011;68858;48.642;9.142;2023-04-06T16:29:16;7.73;;;5.30;;
79403;SDS011;68858;48.642;9.142;2023-04-06T16:31:42;8.50;;;5.60;;
79403;SDS011;68858;48.642;9.142;2023-04-06T16:34:11;6.80;;;5.23;;
79403;SDS011;68858;48.642;9.142;2023-04-06T16:36:37;7.30;;;5.90;;
79403;SDS011;68858;48.642;9.142;2023-04-06T16:39:04;7.07;;;5.67;;
79403;SDS011;68858;48.642;9.142;2023-04-06T16:41:30;8.60;;;5.43;;
79403;SDS011;68858;48.642;9.142;2023-04-06T16:43:56;7.70;;;6.13;;
79403;SDS011;68858;48.642;9.142;2023-04-06T16:46:27;5.80;;;4.87;;
79403;SDS011;68858;48.642;9.142;2023-04-06T16:48:56;8.00;;;5.33;;
79403;SDS011;68858;48.642;9.142;2023-04-06T16:51:22;6.43;;;5.00;;
79403;SDS011;68858;48.642;9.142;2023-04-06T16:53:47;5.73;;;4.67;;
79403;SDS011;68858;48.642;9.142;2023-04-06T16:56:13;9.03;;;5.40;;
79403;SDS011;68858;48.642;9.142;2023-04-06T16:58:38;8.07;;;6.80;;
79403;SDS011;68858;48.642;9.142;2023-04-06T17:01:03;12.37;;;8.50;;
79403;SDS011;68858;48.642;9.142;2023-04-06T17:03:31;10.80;;;8.40;;
79403;SDS011;68858;48.642;9.142;2023-04-06T17:05:57;13.60;;;8.70;;
79403;SDS011;68858;48.642;9.142;2023-04-06T17:08:23;11.13;;;8.10;;
79403;SDS011;68858;48.642;9.142;2023-04-06T17:10:48;12.40;;;9.40;;
79403;SDS011;68858;48.642;9.142;2023-04-06T17:13:14;21.73;;;18.33;;
79403;SDS011;68858;48.642;9.142;2023-04-06T17:15:39;32.07;;;19.83;;
79403;SDS011;68858;48.642;9.142;2023-04-06T17:18:04;17.63;;;12.10;;
79403;SDS011;68858;48.642;9.142;2023-04-06T17:20:30;42.70;;;24.37;;
79403;SDS011;68858;48.642;9.142;2023-04-06T17:22:55;43.87;;;25.50;;
79403;SDS011;68858;48.642;9.142;2023-04-06T17:25:21;43.70;;;23.47;;
79403;SDS011;68858;48.642;9.142;2023-04-06T17:27:46;60.93;;;34.57;;
79403;SDS011;68858;48.642;9.142;2023-04-06T17:30:11;86.47;;;51.17;;
79403;SDS011;68858;48.642;9.142;2023-04-06T17:32:37;71.40;;;44.20;;
79403;SDS011;68858;48.642;9.142;2023-04-06T17:35:03;33.93;;;22.70;;
79403;SDS011;68858;48.642;9.142;2023-04-06T17:37:29;30.17;;;18.70;;
79403;SDS011;68858;48.642;9.142;2023-04-06T17:39:55;36.47;;;22.37;;
79403;SDS011;68858;48.642;9.142;2023-04-06T17:42:21;15.03;;;11.77;;
79403;SDS011;68858;48.642;9.142;2023-04-06T17:44:46;12.30;;;9.07;;
79403;SDS011;68858;48.642;9.142;2023-04-06T17:47:13;10.90;;;9.43;;
79403;SDS011;68858;48.642;9.142;2023-04-06T17:49:39;18.60;;;15.43;;
79403;SDS011;68858;48.642;9.142;2023-04-06T17:52:04;14.33;;;12.73;;
79403;SDS011;68858;48.642;9.142;2023-04-06T17:54:29;10.37;;;7.47;;
79403;SDS011;68858;48.642;9.142;2023-04-06T17:56:55;11.77;;;6.30;;
79403;SDS011;68858;48.642;9.142;2023-04-06T17:59:21;8.47;;;6.83;;
79403;SDS011;68858;48.642;9.142;2023-04-06T18:01:46;7.10;;;5.43;;
79403;SDS011;68858;48.642;9.142;2023-04-06T18:04:12;7.53;;;5.93;;
79403;SDS011;68858;48.642;9.142;2023-04-06T18:06:37;6.47;;;5.57;;
79403;SDS011;68858;48.642;9.142;2023-04-06T18:09:03;8.03;;;5.87;;
79403;SDS011;68858;48.642;9.142;2023-04-06T18:11:28;12.83;;;7.57;;
79403;SDS011;68858;48.642;9.142;2023-04-06T18:13:55;9.43;;;6.53;;
79403;SDS011;68858;48.642;9.142;2023-04-06T18:16:21;13.37;;;8.07;;
79403;SDS011;68858;48.642;9.142;2023-04-06T18:18:47;10.67;;;6.70;;
79403;SDS011;68858;48.642;9.142;2023-04-06T18:21:12;10.47;;;7.67;;
79403;SDS011;68858;48.642;9.142;2023-04-06T18:23:37;10.67;;;6.80;;
79403;SDS011;68858;48.642;9.142;2023-04-06T18:26:03;8.90;;;6.57;;
79403;SDS011;68858;48.642;9.142;2023-04-06T18:28:29;9.20;;;6.20;;
79403;SDS011;68858;48.642;9.142;2023-04-06T18:30:57;7.70;;;5.33;;
79403;SDS011;68858;48.642;9.142;2023-04-06T18:33:23;8.57;;;5.60;;
79403;SDS011;68858;48.642;9.142;2023-04-06T18:35:51;7.47;;;5.50;;
79403;SDS011;68858;48.642;9.142;2023-04-06T18:38:16;7.97;;;5.13;;
79403;SDS011;68858;48.642;9.142;2023-04-06T18:40:42;6.17;;;5.43;;
79403;SDS011;68858;48.642;9.142;2023-04-06T18:43:07;6.70;;;5.67;;
79403;SDS011;68858;48.642;9.142;2023-04-06T18:45:33;6.93;;;5.03;;
79403;SDS011;68858;48.642;9.142;2023-04-06T18:48:00;5.03;;;4.30;;
79403;SDS011;68858;48.642;9.142;2023-04-06T18:50:25;8.37;;;5.00;;
79403;SDS011;68858;48.642;9.142;2023-04-06T18:52:51;5.50;;;3.80;;